Time;durP1;ratioP1;P1;durP2;ratioP2;P2;SDS_P1;SDS_P2;PMS_P1;PMS_P2;Temp;Humidity;BMP_temperature;BMP_pressure;BME280_temperature;BME280_humidity;BME280_pressure;Samples;Min_cycle;Max_cycle;Signal;HPM_P1;HPM_P2
2021/12/25 00:01:28;;;;;;;;;;;;;;;4.34;65.16;99709.59;4924116;29;1745;-96
2021/12/25 00:04:04;;;;;;;;;;;;;;;4.32;65.08;99715.13;4924857;29;2000;-96
2021/12/25 00:06:31;;;;;;;;;;;;;;;4.39;64.95;99715.16;4920880;29;2162;-96
2021/12/25 00:08:58;;;;;;;;;;;;;;;4.33;65.19;99715.97;4925719;29;1521;-96
2021/12/25 00:11:25;;;;;;;;;;;;;;;4.32;65.17;99717.81;4925071;29;1840;-96
2021/12/25 00:13:53;;;;;;;;;;;;;;;4.34;65.27;99717.59;4925342;29;1988;-96
2021/12/25 00:16:21;;;;;;;;;;;;;;;4.36;65.01;99720.88;4933424;29;1356;-96
2021/12/25 00:18:48;;;;;;;;;;;;;;;4.32;65.27;99724.94;4913652;29;1722;-96
2021/12/25 00:21:15;;;;;;;;;;;;;;;4.32;65.19;99723.13;4907541;29;1826;-96
2021/12/25 00:23:52;;;;;;;;;;;;;;;4.30;65.28;99727.84;4927388;29;1970;-96
2021/12/25 00:26:39;;;;;;;;;;;;;;;4.31;65.18;99736.66;4910289;29;1767;-96
2021/12/25 00:29:32;;;;;;;;;;;;;;;4.35;65.07;99729.06;4913877;29;1741;-96
2021/12/25 00:35:08;;;;;;;;;;;;;;;4.31;65.05;99741.97;4916604;29;2101;-96
2021/12/25 00:37:48;;;;;;;;;;;;;;;4.35;65.00;99753.06;4910948;29;1462;-96
2021/12/25 00:40:20;;;;;;;;;;;;;;;4.30;65.13;99751.00;4930934;29;1718;-96
2021/12/25 00:42:48;;;;;;;;;;;;;;;4.33;65.03;99755.94;4922427;29;2250;-96
2021/12/25 00:45:16;;;;;;;;;;;;;;;4.28;65.03;99756.53;4927358;29;3926;-96
2021/12/25 00:47:43;;;;;;;;;;;;;;;4.30;65.00;99756.34;4906729;29;1810;-96
2021/12/25 00:50:10;;;;;;;;;;;;;;;4.30;65.10;99756.34;4908874;29;1921;-96
2021/12/25 00:52:37;;;;;;;;;;;;;;;4.28;65.20;99750.38;4906622;29;1999;-96
2021/12/25 00:55:06;;;;;;;;;;;;;;;4.26;65.13;99749.75;4926676;29;1789;-96
2021/12/25 00:57:33;;;;;;;;;;;;;;;4.29;65.04;99744.88;4924450;29;1851;-96
2021/12/25 01:00:00;;;;;;;;;;;;;;;4.29;64.82;99752.84;4930223;29;2031;-96
2021/12/25 01:08:21;;;;;;;;;;;;;;;4.30;64.94;99759.81;4925746;29;1078;-96
2021/12/25 01:10:56;;;;;;;;;;;;;;;4.30;64.88;99761.69;4933982;29;1524;-96
2021/12/25 01:13:27;;;;;;;;;;;;;;;4.29;64.81;99760.00;4929302;29;1640;-96
2021/12/25 01:24:37;;;;;;;;;;;;;;;4.25;65.08;99764.09;4925862;29;2512;-96
2021/12/25 01:29:54;;;;;;;;;;;;;;;4.24;64.96;99755.28;4910746;29;1983;-96
2021/12/25 01:32:53;;;;;;;;;;;;;;;4.25;64.95;99756.94;4927137;29;1799;-96
2021/12/25 01:35:38;;;;;;;;;;;;;;;4.24;64.86;99759.81;4927816;29;1759;-96
2021/12/25 01:38:20;;;;;;;;;;;;;;;4.27;64.81;99770.06;4944506;29;1405;-96
2021/12/25 01:40:59;;;;;;;;;;;;;;;4.24;64.92;99765.94;4936659;29;1854;-96
2021/12/25 01:48:55;;;;;;;;;;;;;;;4.23;64.74;99774.13;4921669;29;2760;-96
2021/12/25 01:51:22;;;;;;;;;;;;;;;4.25;64.85;99778.25;4925726;29;2038;-96
2021/12/25 01:53:50;;;;;;;;;;;;;;;4.22;64.81;99783.16;4927910;29;1923;-96
2021/12/25 01:56:17;;;;;;;;;;;;;;;4.22;64.84;99775.16;4928594;29;1678;-96
2021/12/25 01:58:43;;;;;;;;;;;;;;;4.19;65.11;99786.22;4915775;29;1886;-96
2021/12/25 02:01:10;;;;;;;;;;;;;;;4.21;64.83;99773.53;4908360;29;1792;-96
2021/12/25 02:03:49;;;;;;;;;;;;;;;4.24;64.76;99775.78;4908730;29;1793;-96
2021/12/25 02:06:16;;;;;;;;;;;;;;;4.24;64.75;99776.63;4898542;29;1907;-96
2021/12/25 02:09:08;;;;;;;;;;;;;;;4.22;64.75;99777.81;4908413;29;2209;-96
2021/12/25 02:14:36;;;;;;;;;;;;;;;4.22;64.59;99781.31;4919586;29;1319;-96
2021/12/25 02:17:15;;;;;;;;;;;;;;;4.22;64.74;99789.31;4913023;29;1410;-96
2021/12/25 02:19:56;;;;;;;;;;;;;;;4.23;64.62;99785.59;4928215;29;1746;-96
2021/12/25 02:25:33;;;;;;;;;;;;;;;4.21;64.67;99795.66;4904776;29;1888;-96
2021/12/25 02:28:01;;;;;;;;;;;;;;;4.17;64.85;99797.06;4911924;29;1715;-96
2021/12/25 02:30:46;;;;;;;;;;;;;;;4.15;64.82;99795.59;4912355;29;1722;-96
2021/12/25 02:33:13;;;;;;;;;;;;;;;4.18;64.61;99792.56;4914211;29;1472;-96
2021/12/25 02:35:47;;;;;;;;;;;;;;;4.13;64.79;99793.16;4906815;29;2182;-96
2021/12/25 02:38:14;;;;;;;;;;;;;;;4.18;64.58;99790.72;4901851;29;1892;-96
2021/12/25 02:40:47;;;;;;;;;;;;;;;4.14;64.84;99786.78;4896384;29;2195;-96
2021/12/25 02:46:01;;;;;;;;;;;;;;;4.15;64.70;99787.63;4906250;29;1915;-96
2021/12/25 02:48:28;;;;;;;;;;;;;;;4.13;64.96;99789.66;4898397;29;4554;-96
2021/12/25 02:51:07;;;;;;;;;;;;;;;4.13;64.86;99787.00;4906288;29;1767;-96
2021/12/25 02:53:34;;;;;;;;;;;;;;;4.13;64.68;99779.81;4906637;29;1925;-96
2021/12/25 02:56:01;;;;;;;;;;;;;;;4.17;64.68;99781.06;4904809;29;1788;-96
2021/12/25 02:58:37;;;;;;;;;;;;;;;4.13;64.67;99787.81;4911798;29;1604;-96
2021/12/25 03:01:12;;;;;;;;;;;;;;;4.15;64.80;99785.78;4920669;29;2193;-96
2021/12/25 03:03:38;;;;;;;;;;;;;;;4.17;64.42;99786.41;4923486;29;2412;-96
2021/12/25 03:06:05;;;;;;;;;;;;;;;4.12;64.70;99794.19;4922330;29;1915;-96
2021/12/25 03:08:32;;;;;;;;;;;;;;;4.11;64.82;99787.19;4921669;29;2475;-96
2021/12/25 03:10:59;;;;;;;;;;;;;;;4.15;64.64;99782.28;4919210;29;1603;-96
2021/12/25 03:16:13;;;;;;;;;;;;;;;4.13;64.70;99790.50;4917237;29;1740;-96
2021/12/25 03:18:43;;;;;;;;;;;;;;;4.13;64.60;99787.00;4905936;29;4803;-96
2021/12/25 03:21:11;;;;;;;;;;;;;;;4.09;64.64;99789.25;4904728;29;1941;-96
2021/12/25 03:23:42;;;;;;;;;;;;;;;4.07;64.60;99799.28;4901512;29;1837;-96
2021/12/25 03:26:10;;;;;;;;;;;;;;;4.07;64.86;99797.41;4898338;29;1910;-96
2021/12/25 03:28:54;;;;;;;;;;;;;;;;;;;;;
2021/12/25 03:31:41;;;;;;;;;;;;;;;4.07;64.64;99788.63;4918950;29;2088;-96
2021/12/25 03:36:56;;;;;;;;;;;;;;;4.09;64.53;99803.38;4914348;29;1946;-96
2021/12/25 03:39:23;;;;;;;;;;;;;;;4.06;64.61;99800.31;4921228;29;1641;-96
2021/12/25 03:41:50;;;;;;;;;;;;;;;4.04;64.73;99794.34;4912698;29;1766;-96
2021/12/25 03:44:17;;;;;;;;;;;;;;;4.05;64.67;99799.44;4923182;29;1896;-96
2021/12/25 03:46:58;;;;;;;;;;;;;;;;;;;;;
2021/12/25 03:58:03;;;;;;;;;;;;;;;4.05;64.44;99807.44;4915255;29;1884;-96
2021/12/25 04:00:51;;;;;;;;;;;;;;;4.02;64.62;99810.50;4935534;29;1937;-96
2021/12/25 04:03:25;;;;;;;;;;;;;;;4.04;64.45;99807.66;4926630;29;2442;-96
2021/12/25 04:05:54;;;;;;;;;;;;;;;4.03;64.56;99803.31;4925524;29;1914;-96
2021/12/25 04:08:24;;;;;;;;;;;;;;;4.02;64.48;99810.50;4927381;29;1997;-96
2021/12/25 04:11:11;;;;;;;;;;;;;;;4.04;64.46;99818.31;4926079;29;1761;-96
2021/12/25 04:13:39;;;;;;;;;;;;;;;4.03;64.45;99819.31;4926073;29;4724;-96
2021/12/25 04:16:06;;;;;;;;;;;;;;;3.97;64.84;99812.94;4925151;29;1908;-96
2021/12/25 04:18:32;;;;;;;;;;;;;;;4.01;64.51;99816.84;4926257;29;2327;-96
2021/12/25 04:20:59;;;;;;;;;;;;;;;3.99;64.48;99812.75;4920217;29;1798;-96
2021/12/25 04:23:29;;;;;;;;;;;;;;;3.98;64.41;99819.91;4928243;29;1800;-96
2021/12/25 04:25:57;;;;;;;;;;;;;;;4.00;64.32;99822.38;4912555;29;1907;-96
2021/12/25 04:31:22;;;;;;;;;;;;;;;3.99;64.18;99812.75;4915355;29;1343;-96
2021/12/25 04:48:21;;;;;;;;;;;;;;;3.95;64.41;99820.31;4921737;29;1295;-96
2021/12/25 05:05:03;;;;;;;;;;;;;;;3.94;64.46;99823.16;4907771;29;1906;-96
2021/12/25 05:07:30;;;;;;;;;;;;;;;3.93;64.33;99822.34;4903150;29;2127;-96
2021/12/25 05:12:56;;;;;;;;;;;;;;;3.89;64.50;99826.41;4902837;29;1870;-96
2021/12/25 05:15:24;;;;;;;;;;;;;;;3.91;64.33;99826.19;4896901;29;1751;-96
2021/12/25 05:17:50;;;;;;;;;;;;;;;3.89;64.42;99825.59;4900325;29;1852;-96
2021/12/25 05:20:18;;;;;;;;;;;;;;;3.89;64.17;99823.75;4902078;29;1766;-96
2021/12/25 05:22:45;;;;;;;;;;;;;;;3.86;64.28;99814.28;4906528;29;1808;-96
2021/12/25 05:25:12;;;;;;;;;;;;;;;3.89;64.41;99826.41;4906008;29;1976;-96
2021/12/25 05:30:19;;;;;;;;;;;;;;;3.94;64.13;99831.13;4894608;29;2016;-96
2021/12/25 05:32:46;;;;;;;;;;;;;;;3.90;63.98;99835.22;4902859;29;1735;-96
2021/12/25 05:38:24;;;;;;;;;;;;;;;3.88;64.51;99832.75;4920428;29;3073;-96
2021/12/25 05:40:50;;;;;;;;;;;;;;;3.86;64.33;99840.13;4899038;29;2216;-96
2021/12/25 05:46:24;;;;;;;;;;;;;;;3.85;64.13;99838.44;4901624;29;1911;-96
2021/12/25 05:48:50;;;;;;;;;;;;;;;3.87;64.17;99834.59;4902702;29;2407;-96
2021/12/25 05:51:17;;;;;;;;;;;;;;;3.83;64.47;99833.34;4905374;29;1719;-96
2021/12/25 05:53:44;;;;;;;;;;;;;;;3.82;64.40;99837.03;4898867;29;2480;-96
2021/12/25 05:56:22;;;;;;;;;;;;;;;3.83;64.41;99830.66;4904492;29;1867;-96
2021/12/25 06:01:49;;;;;;;;;;;;;;;3.83;64.18;99833.34;4936710;29;1485;-96
2021/12/25 06:04:23;;;;;;;;;;;;;;;3.81;64.48;99824.69;4918175;29;1737;-96
2021/12/25 06:06:52;;;;;;;;;;;;;;;3.84;63.98;99826.16;4934506;29;1957;-96
2021/12/25 06:09:19;;;;;;;;;;;;;;;3.82;64.24;99823.72;4924291;29;2155;-96
2021/12/25 06:11:46;;;;;;;;;;;;;;;3.82;64.10;99829.03;4922581;29;1858;-96
2021/12/25 06:14:18;;;;;;;;;;;;;;;3.81;64.43;99827.38;4919950;29;2755;-96
2021/12/25 06:16:52;;;;;;;;;;;;;;;3.81;64.28;99831.88;4922526;29;1867;-96
2021/12/25 06:19:23;;;;;;;;;;;;;;;3.79;64.35;99836.56;4918319;29;2543;-96
2021/12/25 06:21:49;;;;;;;;;;;;;;;3.81;64.25;99837.22;4922939;29;1878;-96
2021/12/25 06:24:30;;;;;;;;;;;;;;;;;;;;;
2021/12/25 06:27:04;;;;;;;;;;;;;;;3.81;64.32;99837.22;4932527;29;1976;-96
2021/12/25 06:29:31;;;;;;;;;;;;;;;3.79;64.22;99839.22;4929773;29;1740;-96
2021/12/25 06:32:07;;;;;;;;;;;;;;;3.78;64.33;99832.25;4920804;29;1393;-96
2021/12/25 06:34:34;;;;;;;;;;;;;;;3.75;64.24;99830.81;4930362;29;1722;-96
2021/12/25 06:37:10;;;;;;;;;;;;;;;3.79;63.99;99823.25;4917627;29;1768;-96
2021/12/25 06:42:27;;;;;;;;;;;;;;;3.76;63.96;99824.44;4915753;29;2142;-96
2021/12/25 06:47:34;;;;;;;;;;;;;;;3.70;64.08;99830.56;4920354;29;1911;-96
2021/12/25 06:50:02;;;;;;;;;;;;;;;3.72;64.15;99828.53;4933194;29;3118;-96
2021/12/25 07:00:48;;;;;;;;;;;;;;;3.68;64.08;99832.59;4905434;29;2072;-96
2021/12/25 07:03:17;;;;;;;;;;;;;;;3.72;64.36;99827.72;4921816;29;1980;-96
2021/12/25 07:05:54;;;;;;;;;;;;;;;3.71;64.13;99820.75;4913059;29;2164;-96
2021/12/25 07:08:39;;;;;;;;;;;;;;;3.73;64.13;99818.69;4927072;29;1422;-96
2021/12/25 07:14:04;;;;;;;;;;;;;;;3.69;64.20;99828.09;4927494;29;2229;-96
2021/12/25 07:16:32;;;;;;;;;;;;;;;3.71;64.17;99840.22;4902207;29;1511;-96
2021/12/25 07:19:03;;;;;;;;;;;;;;;3.73;64.06;99838.16;4926962;29;2336;-96
2021/12/25 07:21:30;;;;;;;;;;;;;;;3.69;63.88;99833.41;4927215;29;2475;-96
2021/12/25 07:23:58;;;;;;;;;;;;;;;3.70;63.89;99832.41;4911426;29;1584;-96
2021/12/25 07:26:29;;;;;;;;;;;;;;;3.67;64.14;99830.13;4906594;29;2517;-96
2021/12/25 07:28:58;;;;;;;;;;;;;;;3.66;63.96;99833.81;4912466;29;1849;-96
2021/12/25 07:31:25;;;;;;;;;;;;;;;3.67;63.97;99832.78;4910721;29;1821;-96
2021/12/25 07:33:57;;;;;;;;;;;;;;;3.64;64.05;99837.47;4930211;29;2225;-96
2021/12/25 07:36:25;;;;;;;;;;;;;;;3.64;63.86;99840.13;4929962;29;1837;-96
2021/12/25 07:41:39;;;;;;;;;;;;;;;3.66;64.11;99836.47;4910936;29;1481;-96
2021/12/25 07:44:07;;;;;;;;;;;;;;;3.67;63.90;99852.25;4912416;29;2038;-96
2021/12/25 07:46:37;;;;;;;;;;;;;;;3.69;63.99;99839.56;4930624;29;1958;-96
2021/12/25 07:49:07;;;;;;;;;;;;;;;3.64;63.89;99848.13;4911385;29;2267;-96
2021/12/25 07:51:46;;;;;;;;;;;;;;;;;;;;;
2021/12/25 07:57:23;;;;;;;;;;;;;;;3.64;64.08;99863.28;4913926;29;2332;-96
2021/12/25 08:00:03;;;;;;;;;;;;;;;3.64;63.78;99866.75;4927600;29;1640;-96
2021/12/25 08:02:31;;;;;;;;;;;;;;;3.65;63.96;99870.28;4930214;29;2144;-96
2021/12/25 08:04:58;;;;;;;;;;;;;;;3.61;63.97;99872.47;4911198;29;2524;-96
2021/12/25 08:07:27;;;;;;;;;;;;;;;3.59;63.87;99868.38;4907688;29;1968;-96
2021/12/25 08:24:19;;;;;;;;;;;;;;;3.59;63.63;99860.38;4896738;29;1831;-96
2021/12/25 08:27:31;;;;;;;;;;;;;;;3.56;64.19;99869.56;4904293;29;1899;-96
2021/12/25 08:32:50;;;;;;;;;;;;;;;3.56;63.69;99861.59;4909877;29;2520;-96
2021/12/25 08:38:18;;;;;;;;;;;;;;;3.57;64.07;99859.75;4917634;29;2519;-96
2021/12/25 08:41:00;;;;;;;;;;;;;;;3.55;63.72;99859.91;4918058;29;1857;-96
2021/12/25 08:49:01;;;;;;;;;;;;;;;3.54;63.98;99865.44;4917439;29;2064;-95
2021/12/25 08:54:18;;;;;;;;;;;;;;;3.52;63.94;99875.47;4911961;29;1930;-97
2021/12/25 08:56:45;;;;;;;;;;;;;;;3.52;64.07;99872.81;4930385;29;1416;-96
2021/12/25 08:59:16;;;;;;;;;;;;;;;3.51;64.10;99874.63;4921156;29;1754;-96
2021/12/25 09:02:23;;;;;;;;;;;;;;;3.54;63.85;99876.94;4896421;29;2073;-96
2021/12/25 09:10:37;;;;;;;;;;;;;;;3.51;63.98;99865.84;4900897;29;3184;-96
2021/12/25 09:13:04;;;;;;;;;;;;;;;3.47;63.59;99868.06;4910116;29;1704;-96
2021/12/25 09:15:30;;;;;;;;;;;;;;;3.47;63.74;99873.38;4907813;29;1801;-96
2021/12/25 09:17:57;;;;;;;;;;;;;;;3.47;63.95;99868.06;4914141;29;2239;-96
2021/12/25 09:29:07;;;;;;;;;;;;;;;3.49;63.80;99876.66;4900754;29;3382;-96
2021/12/25 09:37:33;;;;;;;;;;;;;;;3.44;63.88;99870.25;4907607;29;1396;-96
2021/12/25 09:40:00;;;;;;;;;;;;;;;3.46;64.11;99873.56;4898611;29;2907;-96
2021/12/25 09:42:28;;;;;;;;;;;;;;;3.45;63.95;99875.41;4924027;29;2635;-96
2021/12/25 09:44:55;;;;;;;;;;;;;;;3.44;63.75;99872.91;4912079;29;1380;-96
2021/12/25 09:50:05;;;;;;;;;;;;;;;3.44;63.77;99872.91;4915694;29;1696;-96
2021/12/25 09:52:45;;;;;;;;;;;;;;;3.46;63.77;99869.06;4909844;29;2133;-96
2021/12/25 09:55:15;;;;;;;;;;;;;;;3.44;63.57;99862.25;4916996;29;1066;-96
2021/12/25 09:57:52;;;;;;;;;;;;;;;3.43;63.97;99869.44;4918781;29;2510;-96
2021/12/25 12:26:28;;;;;;;;;;;;;;;3.71;64.29;99853.53;4937733;29;4245;-96
2021/12/25 12:32:18;;;;;;;;;;;;;;;3.73;64.22;99846.16;4956990;28;1283;-96
2021/12/25 12:34:51;;;;;;;;;;;;;;;3.77;64.21;99847.44;5258442;23;2017;-96
2021/12/25 12:37:20;;;;;;;;;;;;;;;3.76;64.19;99844.94;4925433;29;1488;-96
2021/12/25 13:03:18;;;;;;;;;;;;;;;3.91;64.44;99863.50;4933282;29;1266;-96
2021/12/25 13:14:09;;;;;;;;;;;;;;;3.94;64.61;99858.63;5793028;23;1716;-96
2021/12/25 13:16:51;;;;;;;;;;;;;;;3.99;64.41;99855.38;4904104;29;1480;-96
2021/12/25 13:19:18;;;;;;;;;;;;;;;3.98;64.60;99851.88;4927491;29;1669;-96
2021/12/25 13:21:50;;;;;;;;;;;;;;;4.00;64.53;99859.66;4934020;29;1595;-96
2021/12/25 13:24:31;;;;;;;;;;;;;;;4.03;64.48;99859.28;4921275;29;1899;-96
2021/12/25 13:27:00;;;;;;;;;;;;;;;4.07;64.39;99857.91;4931454;29;1906;-96
2021/12/25 13:29:43;;;;;;;;;;;;;;;4.05;64.61;99859.91;4922885;29;1683;-96
2021/12/25 13:32:21;;;;;;;;;;;;;;;4.06;64.47;99856.25;4920734;29;1928;-96
2021/12/25 13:34:48;;;;;;;;;;;;;;;4.07;64.61;99850.72;4923884;29;2340;-96
2021/12/25 13:37:17;;;;;;;;;;;;;;;4.09;64.58;99854.03;4910651;29;1972;-96
2021/12/25 13:42:33;;;;;;;;;;;;;;;4.11;64.65;99853.81;4899091;29;1917;-96
2021/12/25 13:45:00;;;;;;;;;;;;;;;4.14;64.63;99844.59;4906765;29;2301;-96
2021/12/25 13:47:28;;;;;;;;;;;;;;;4.17;64.58;99852.22;4920846;29;1966;-96
2021/12/25 13:49:57;;;;;;;;;;;;;;;4.15;64.66;99844.44;4932785;29;1654;-96
2021/12/25 13:52:25;;;;;;;;;;;;;;;4.17;64.79;99839.72;4911044;29;1574;-96
2021/12/25 13:55:01;;;;;;;;;;;;;;;4.18;64.69;99836.03;4931173;29;1638;-96
2021/12/25 14:06:00;;;;;;;;;;;;;;;4.24;64.77;99843.25;4927886;29;1639;-96
2021/12/25 14:08:32;;;;;;;;;;;;;;;4.25;64.60;99849.41;4931577;29;2000;-96
2021/12/25 14:14:00;;;;;;;;;;;;;;;4.25;64.50;99844.06;4914064;29;1662;-96
2021/12/25 14:16:27;;;;;;;;;;;;;;;4.27;64.82;99845.53;4927162;29;1595;-96
2021/12/25 14:19:02;;;;;;;;;;;;;;;4.32;64.57;99850.25;4913801;29;1678;-96
2021/12/25 14:21:42;;;;;;;;;;;;;;;4.31;64.60;99854.78;4920136;29;1738;-96
2021/12/25 14:32:47;;;;;;;;;;;;;;;4.35;64.71;99849.03;4937114;29;1537;-96
2021/12/25 14:38:32;;;;;;;;;;;;;;;4.37;64.79;99858.50;4914513;29;1523;-96
2021/12/25 14:49:34;;;;;;;;;;;;;;;4.39;64.83;99864.47;4932950;29;1544;-96
2021/12/25 14:52:04;;;;;;;;;;;;;;;4.42;64.77;99861.41;4911655;29;1350;-96
2021/12/25 14:57:39;;;;;;;;;;;;;;;4.41;64.77;99867.78;4860935;29;1571;-96
2021/12/25 15:00:09;;;;;;;;;;;;;;;4.41;64.71;99866.91;4856491;29;2625;-96
2021/12/25 15:02:40;;;;;;;;;;;;;;;4.41;64.77;99865.09;4855687;29;2098;-96
2021/12/25 15:05:10;;;;;;;;;;;;;;;4.47;64.59;99863.47;4853144;29;1656;-96
2021/12/25 15:07:42;;;;;;;;;;;;;;;4.44;64.78;99867.38;4856396;29;1887;-96
2021/12/25 15:10:10;;;;;;;;;;;;;;;4.45;64.88;99870.84;4856685;29;2352;-96
2021/12/25 15:12:37;;;;;;;;;;;;;;;4.44;64.74;99869.19;4852917;29;1237;-96
2021/12/25 15:15:06;;;;;;;;;;;;;;;4.48;64.80;99868.63;4842851;29;1883;-96
2021/12/25 15:17:37;;;;;;;;;;;;;;;4.49;64.78;99874.78;4833537;29;1313;-96
2021/12/25 15:20:04;;;;;;;;;;;;;;;4.48;64.78;99879.28;4852921;29;1820;-96
2021/12/25 15:25:11;;;;;;;;;;;;;;;4.48;64.94;99884.63;4848753;29;1728;-96
2021/12/25 15:27:41;;;;;;;;;;;;;;;4.48;64.73;99879.28;4849518;29;1919;-96
2021/12/25 15:30:12;;;;;;;;;;;;;;;4.49;64.72;99874.78;4850622;29;2402;-96
2021/12/25 15:32:42;;;;;;;;;;;;;;;4.50;64.78;99871.06;4853441;29;1480;-96
2021/12/25 15:35:10;;;;;;;;;;;;;;;4.52;64.64;99880.53;4851568;29;2240;-96
2021/12/25 15:37:48;;;;;;;;;;;;;;;4.48;64.83;99873.94;4852156;29;2698;-96
2021/12/25 15:40:17;;;;;;;;;;;;;;;4.51;64.80;99878.06;4847819;29;1500;-96
2021/12/25 15:42:44;;;;;;;;;;;;;;;4.50;64.84;99876.41;4847117;29;1528;-96
2021/12/25 15:45:16;;;;;;;;;;;;;;;4.53;64.79;99876.03;4852684;29;1797;-96
2021/12/25 15:47:43;;;;;;;;;;;;;;;4.52;64.72;99877.03;4882172;29;1924;-96
2021/12/25 15:50:35;;;;;;;;;;;;;;;4.51;64.98;99878.88;4933133;29;1571;-96
2021/12/25 15:53:13;;;;;;;;;;;;;;;4.51;64.79;99875.41;4923011;29;1532;-96
2021/12/25 15:55:44;;;;;;;;;;;;;;;4.53;64.84;99876.03;4946211;29;1635;-96
2021/12/25 15:58:19;;;;;;;;;;;;;;;4.54;64.90;99873.16;4920556;29;1834;-96
2021/12/25 16:01:20;;;;;;;;;;;;;;;4.52;64.85;99877.03;4940091;29;1781;-96
2021/12/25 16:04:11;;;;;;;;;;;;;;;4.54;64.91;99875.00;4925123;29;2063;-96
2021/12/25 16:06:42;;;;;;;;;;;;;;;4.54;64.92;99880.34;4937740;29;1976;-96
2021/12/25 16:09:13;;;;;;;;;;;;;;;4.55;64.82;99881.97;4931359;29;1920;-96
2021/12/25 16:14:25;;;;;;;;;;;;;;;4.58;64.69;99872.78;4917518;29;1420;-96
2021/12/25 16:16:54;;;;;;;;;;;;;;;4.55;64.94;99863.31;4914570;29;1921;-96
2021/12/25 16:19:26;;;;;;;;;;;;;;;4.55;64.78;99865.97;4921549;29;1506;-96
2021/12/25 16:24:36;;;;;;;;;;;;;;;4.57;64.87;99871.94;4931867;29;1538;-96
2021/12/25 16:27:04;;;;;;;;;;;;;;;4.58;64.87;99872.78;4913715;29;1911;-96
2021/12/25 16:29:33;;;;;;;;;;;;;;;4.58;64.75;99868.25;4927368;29;1417;-96
2021/12/25 16:32:02;;;;;;;;;;;;;;;4.58;64.75;99875.44;4910829;29;1924;-96
2021/12/25 16:34:32;;;;;;;;;;;;;;;4.62;64.74;99879.34;4915222;29;2211;-96
2021/12/25 16:39:41;;;;;;;;;;;;;;;4.59;64.76;99877.06;4915115;29;1810;-96
2021/12/25 16:42:08;;;;;;;;;;;;;;;4.59;64.75;99882.41;4915004;29;1668;-96
2021/12/25 16:44:42;;;;;;;;;;;;;;;4.58;64.96;99876.25;4919948;29;1608;-96
2021/12/25 16:47:08;;;;;;;;;;;;;;;4.59;64.82;99883.25;4910683;29;1986;-95
2021/12/25 16:49:35;;;;;;;;;;;;;;;4.61;64.75;99885.72;4920441;29;2399;-96
2021/12/25 16:57:28;;;;;;;;;;;;;;;4.61;64.81;99888.38;4916669;29;2001;-96
2021/12/25 16:59:55;;;;;;;;;;;;;;;4.58;64.76;99886.09;4912224;29;5211;-96
2021/12/25 17:02:25;;;;;;;;;;;;;;;4.61;64.85;99891.03;4918815;29;1436;-96
2021/12/25 17:04:52;;;;;;;;;;;;;;;4.63;64.62;99902.34;4898231;29;1738;-96
2021/12/25 17:07:18;;;;;;;;;;;;;;;4.63;64.76;99902.34;4914065;29;1915;-96
2021/12/25 17:09:47;;;;;;;;;;;;;;;4.63;64.57;99894.34;4903415;29;2452;-96
2021/12/25 17:12:35;;;;;;;;;;;;;;;4.62;64.77;99900.69;4901099;29;1936;-96
2021/12/25 17:15:12;;;;;;;;;;;;;;;4.61;64.78;99891.84;4896964;29;1867;-96
2021/12/25 17:17:39;;;;;;;;;;;;;;;4.61;64.71;99894.53;4900356;29;2370;-96
2021/12/25 17:20:05;;;;;;;;;;;;;;;4.62;64.70;99898.00;4891876;29;4799;-96
2021/12/25 17:22:31;;;;;;;;;;;;;;;4.63;64.72;99892.50;4900952;29;1920;-96
2021/12/25 17:28:08;;;;;;;;;;;;;;;4.62;64.85;99895.34;4931175;29;2654;-96
2021/12/25 17:30:35;;;;;;;;;;;;;;;4.62;64.78;99900.69;4924447;29;1682;-96
2021/12/25 17:33:11;;;;;;;;;;;;;;;4.61;64.55;99905.19;4915439;29;1512;-96
2021/12/25 17:35:43;;;;;;;;;;;;;;;4.63;64.81;99903.16;4925361;29;1801;-96
2021/12/25 17:38:15;;;;;;;;;;;;;;;4.61;64.79;99902.53;4933170;29;1524;-96
2021/12/25 17:40:46;;;;;;;;;;;;;;;4.64;64.89;99899.47;4912186;29;1802;-96
2021/12/25 17:43:13;;;;;;;;;;;;;;;4.62;64.62;99888.19;4920426;29;1777;-96
2021/12/25 17:45:42;;;;;;;;;;;;;;;4.65;64.61;99895.81;4909940;29;2029;-96
2021/12/25 17:48:09;;;;;;;;;;;;;;;4.63;64.79;99891.69;4912547;29;2400;-96
2021/12/25 17:50:37;;;;;;;;;;;;;;;4.63;64.75;99900.50;4903981;29;2047;-96
2021/12/25 17:53:07;;;;;;;;;;;;;;;4.64;64.82;99893.31;4903405;29;1122;-96
2021/12/25 18:01:40;;;;;;;;;;;;;;;4.63;64.74;99894.34;4910694;29;1463;-96
2021/12/25 18:06:47;;;;;;;;;;;;;;;4.62;64.78;99893.53;4911610;29;2011;-96
2021/12/25 18:12:28;;;;;;;;;;;;;;;4.62;64.74;99887.34;5041194;23;2198;-96
2021/12/25 18:17:25;;;;;;;;;;;;;;;4.63;64.88;99889.84;4871376;29;1757;-96
2021/12/25 18:22:45;;;;;;;;;;;;;;;4.64;64.75;99890.66;4879527;29;1684;-96
2021/12/25 18:25:13;;;;;;;;;;;;;;;4.59;64.85;99887.75;4897318;29;2001;-96
2021/12/25 18:27:40;;;;;;;;;;;;;;;4.63;64.65;99886.34;4894345;29;1899;-96
2021/12/25 18:35:44;;;;;;;;;;;;;;;4.61;64.74;99889.19;4894321;29;1953;-96
2021/12/25 18:38:12;;;;;;;;;;;;;;;4.64;64.60;99895.97;4866182;29;2495;-96
2021/12/25 18:40:39;;;;;;;;;;;;;;;4.61;64.77;99891.03;4908576;29;1568;-96
2021/12/25 18:43:06;;;;;;;;;;;;;;;4.61;64.60;99899.03;4889361;29;1657;-96
2021/12/25 18:45:41;;;;;;;;;;;;;;;4.64;64.53;99902.13;4879588;29;4011;-96
2021/12/25 18:48:09;;;;;;;;;;;;;;;4.64;64.53;99903.97;4865568;29;2842;-96
2021/12/25 18:50:37;;;;;;;;;;;;;;;4.63;64.67;99908.50;4881257;29;1684;-96
2021/12/25 18:53:06;;;;;;;;;;;;;;;4.61;64.65;99910.53;4863028;29;2216;-96
2021/12/25 18:55:33;;;;;;;;;;;;;;;4.61;64.71;99910.53;4867309;29;1570;-96
2021/12/25 18:58:01;;;;;;;;;;;;;;;4.61;64.65;99923.88;4861798;29;1953;-96
2021/12/25 19:00:27;;;;;;;;;;;;;;;4.58;64.68;99910.94;4879641;29;1692;-96
2021/12/25 19:02:54;;;;;;;;;;;;;;;4.63;64.61;99915.69;4881840;29;2487;-96
2021/12/25 19:05:20;;;;;;;;;;;;;;;4.60;64.51;99921.41;4888970;29;1910;-96
2021/12/25 19:07:48;;;;;;;;;;;;;;;4.64;64.59;99920.00;4872961;29;1904;-96
2021/12/25 19:10:17;;;;;;;;;;;;;;;4.64;64.46;99920.81;4891317;29;1479;-96
2021/12/25 19:12:43;;;;;;;;;;;;;;;4.62;64.60;99922.88;4870339;29;2000;-96
2021/12/25 19:15:10;;;;;;;;;;;;;;;4.60;64.59;99910.75;4867706;29;2414;-96
2021/12/25 19:17:36;;;;;;;;;;;;;;;4.61;64.77;99913.19;4864935;29;1999;-96
2021/12/25 19:20:04;;;;;;;;;;;;;;;4.62;64.48;99914.88;4872890;29;1737;-96
2021/12/25 19:22:30;;;;;;;;;;;;;;;4.63;64.47;99913.84;4885403;29;1894;-96
2021/12/25 19:24:56;;;;;;;;;;;;;;;4.62;64.60;99917.53;4870076;29;2397;-96
2021/12/25 19:27:23;;;;;;;;;;;;;;;4.59;64.51;99915.25;4866894;29;1981;-96
2021/12/25 19:29:50;;;;;;;;;;;;;;;4.61;64.62;99920.38;4880896;29;4472;-96
2021/12/25 19:32:16;;;;;;;;;;;;;;;4.61;64.57;99923.06;4873465;29;1618;-96
2021/12/25 19:34:47;;;;;;;;;;;;;;;4.63;64.44;99913.03;4885332;29;1838;-96
2021/12/25 19:37:18;;;;;;;;;;;;;;;4.60;64.46;99913.41;4887113;29;1533;-96
2021/12/25 19:39:49;;;;;;;;;;;;;;;4.62;64.52;99914.03;4881675;29;2578;-96
2021/12/25 19:42:20;;;;;;;;;;;;;;;4.60;64.64;99908.06;4882415;29;1582;-96
2021/12/25 19:44:53;;;;;;;;;;;;;;;4.61;64.54;99912.38;4882296;29;1689;-96
2021/12/25 19:47:26;;;;;;;;;;;;;;;4.61;64.54;99905.19;4887193;29;1892;-96
2021/12/25 19:49:54;;;;;;;;;;;;;;;4.59;64.61;99907.25;4890961;29;1731;-96
2021/12/25 19:52:22;;;;;;;;;;;;;;;4.59;64.58;99903.75;4885216;29;2135;-96
2021/12/25 19:54:51;;;;;;;;;;;;;;;4.59;64.38;99901.06;4867197;29;2364;-96
2021/12/25 19:57:18;;;;;;;;;;;;;;;4.60;64.49;99905.41;4876463;29;1907;-96
2021/12/25 19:59:46;;;;;;;;;;;;;;;4.56;64.62;99913.00;4889865;29;4490;-96
2021/12/25 20:02:13;;;;;;;;;;;;;;;4.61;64.45;99918.53;4870394;29;1564;-96
2021/12/25 20:04:41;;;;;;;;;;;;;;;4.61;64.55;99921.19;4870686;29;2058;-96
2021/12/25 20:07:08;;;;;;;;;;;;;;;4.59;64.49;99915.25;4875057;29;1830;-96
2021/12/25 20:09:36;;;;;;;;;;;;;;;4.59;64.45;99912.59;4899938;29;2236;-96
2021/12/25 20:12:05;;;;;;;;;;;;;;;4.61;64.50;99905.19;4900379;29;1713;-96
2021/12/25 20:14:53;;;;;;;;;;;;;;;4.63;64.31;99916.50;4957378;23;2263;-96
2021/12/25 20:20:26;;;;;;;;;;;;;;;4.62;64.42;99906.88;4939295;29;2373;-96
2021/12/25 20:22:52;;;;;;;;;;;;;;;4.61;64.44;99915.88;4930132;29;2874;-96
2021/12/25 20:28:09;;;;;;;;;;;;;;;4.57;64.54;99909.28;4955804;29;1906;-96
2021/12/25 20:30:35;;;;;;;;;;;;;;;4.58;64.56;99908.25;4940100;29;2707;-96
2021/12/25 20:33:03;;;;;;;;;;;;;;;4.57;64.67;99908.47;4929103;29;2729;-96
2021/12/25 20:35:31;;;;;;;;;;;;;;;4.58;64.54;99904.78;4917997;29;2475;-96
2021/12/25 20:38:10;;;;;;;;;;;;;;;4.60;64.48;99908.06;4929707;29;2478;-96
2021/12/25 20:40:36;;;;;;;;;;;;;;;4.59;64.52;99906.41;4933476;29;1175;-96
2021/12/25 20:43:05;;;;;;;;;;;;;;;4.59;64.55;99911.75;4927029;29;5393;-96
2021/12/25 20:45:46;;;;;;;;;;;;;;;4.54;64.56;99907.84;4934160;29;1380;-96
2021/12/25 20:48:13;;;;;;;;;;;;;;;4.57;64.42;99919.13;4913674;29;2281;-96